createdAt,value
2019-03-04T00:00:23.780Z,0.94
2019-03-04T00:03:31.701Z,0.90
2019-03-04T00:06:37.997Z,0.93
2019-03-04T00:09:44.738Z,0.85
2019-03-04T00:12:51.534Z,0.81
2019-03-04T00:15:57.855Z,0.76
2019-03-04T00:19:04.370Z,0.84
2019-03-04T00:22:10.934Z,0.80
2019-03-04T00:25:17.316Z,0.80
2019-03-04T00:28:23.636Z,0.80
2019-03-04T00:31:30.157Z,0.83
2019-03-04T00:34:36.492Z,0.80
2019-03-04T00:37:42.905Z,0.87
2019-03-04T00:40:49.138Z,0.76
2019-03-04T00:43:55.445Z,0.78
2019-03-04T00:47:01.674Z,0.90
2019-03-04T00:50:09.046Z,0.88
2019-03-04T00:53:15.375Z,0.76
2019-03-04T00:56:21.634Z,0.86
2019-03-04T00:59:27.936Z,0.86
2019-03-04T01:02:35.310Z,0.82
2019-03-04T01:05:41.710Z,0.69
2019-03-04T01:08:48.329Z,0.75
2019-03-04T01:11:54.636Z,0.77
2019-03-04T01:15:01.039Z,0.79
2019-03-04T01:18:07.656Z,0.64
2019-03-04T01:21:14.011Z,0.66
2019-03-04T01:24:20.474Z,0.80
2019-03-04T01:27:26.974Z,0.64
2019-03-04T01:30:33.319Z,0.66
2019-03-04T01:33:39.662Z,0.74
2019-03-04T01:36:46.118Z,0.76
2019-03-04T01:39:53.669Z,0.74
2019-03-04T01:42:59.982Z,0.58
2019-03-04T01:46:06.347Z,0.64
2019-03-04T01:49:12.607Z,0.60
2019-03-04T01:52:19.036Z,0.67
2019-03-04T01:55:25.337Z,0.64
2019-03-04T01:58:31.603Z,0.60
2019-03-04T02:01:38.904Z,0.58
2019-03-04T02:04:46.892Z,0.65
2019-03-04T02:07:53.180Z,0.51
2019-03-04T02:11:00.576Z,0.62
2019-03-04T02:14:06.819Z,0.65
2019-03-04T02:17:13.304Z,0.66
2019-03-04T02:20:19.626Z,0.55
2019-03-04T02:23:26.009Z,0.62
2019-03-04T02:26:33.671Z,0.64
2019-03-04T02:29:40.042Z,0.61
2019-03-04T02:32:46.379Z,0.68
2019-03-04T02:35:52.748Z,0.70
2019-03-04T02:38:59.001Z,0.68
2019-03-04T02:42:05.679Z,0.67
2019-03-04T02:45:13.926Z,0.73
2019-03-04T02:48:20.273Z,0.69
2019-03-04T02:51:26.501Z,0.66
2019-03-04T02:54:33.883Z,0.66
2019-03-04T02:57:40.221Z,0.74
2019-03-04T03:00:46.656Z,0.69
2019-03-04T03:03:52.993Z,0.76
2019-03-04T03:06:59.845Z,0.62
2019-03-04T03:10:06.512Z,0.69
2019-03-04T03:13:12.849Z,0.60
2019-03-04T03:16:20.212Z,0.65
2019-03-04T03:19:27.197Z,0.72
2019-03-04T03:22:33.542Z,0.73
2019-03-04T03:25:40.175Z,0.77
2019-03-04T03:28:46.532Z,0.63
2019-03-04T03:31:52.841Z,0.59
2019-03-04T03:34:59.219Z,0.69
2019-03-04T03:38:05.679Z,0.52
2019-03-04T03:41:12.053Z,0.58
2019-03-04T03:44:18.383Z,0.60
2019-03-04T03:47:24.710Z,0.57
2019-03-04T03:50:31.041Z,0.61
2019-03-04T03:53:37.371Z,0.59
2019-03-04T03:56:43.859Z,0.52
2019-03-04T03:59:50.378Z,0.64
2019-03-04T04:02:56.693Z,0.60
2019-03-04T04:06:03.007Z,0.63
2019-03-04T04:09:09.775Z,0.66
2019-03-04T04:12:16.190Z,0.60
2019-03-04T04:15:22.563Z,0.71
2019-03-04T04:18:29.856Z,0.70
2019-03-04T04:21:36.383Z,0.76
2019-03-04T04:24:42.718Z,0.77
2019-03-04T04:27:49.135Z,0.77
2019-03-04T04:30:55.448Z,0.73
2019-03-04T04:34:02.009Z,0.77
2019-03-04T04:37:09.355Z,0.83
2019-03-04T04:40:15.698Z,0.86
2019-03-04T04:43:22.013Z,0.85
2019-03-04T04:46:48.888Z,0.84
2019-03-04T04:49:55.170Z,0.82
2019-03-04T04:53:01.716Z,0.79
2019-03-04T04:56:08.056Z,0.67
2019-03-04T04:59:14.554Z,0.67
2019-03-04T05:02:20.874Z,0.70
2019-03-04T05:05:27.373Z,0.78
2019-03-04T05:08:33.715Z,0.74
2019-03-04T05:11:40.922Z,0.68
2019-03-04T05:14:47.294Z,0.76
2019-03-04T05:17:53.573Z,0.64
2019-03-04T05:20:59.898Z,0.80
2019-03-04T05:24:06.447Z,0.82
2019-03-04T05:27:12.775Z,0.93
2019-03-04T05:30:19.707Z,0.87
2019-03-04T05:33:26.034Z,0.87
2019-03-04T05:36:32.451Z,0.91
2019-03-04T05:39:39.172Z,0.94
2019-03-04T05:42:45.497Z,0.94
2019-03-04T05:45:51.893Z,0.98
2019-03-04T05:48:58.457Z,0.96
2019-03-04T05:52:04.812Z,0.93
2019-03-04T05:55:14.116Z,0.89
2019-03-04T05:58:21.322Z,0.97
2019-03-04T06:01:30.946Z,0.89
2019-03-04T06:04:37.758Z,0.91
2019-03-04T06:07:56.722Z,0.87
2019-03-04T06:11:02.994Z,0.82
2019-03-04T06:14:12.683Z,0.89
2019-03-04T06:17:19.225Z,0.88
2019-03-04T06:20:26.269Z,0.96
2019-03-04T06:23:32.509Z,0.87
2019-03-04T06:26:38.896Z,1.00
2019-03-04T06:29:46.417Z,0.99
2019-03-04T06:32:52.872Z,1.04
2019-03-04T06:35:59.250Z,1.01
2019-03-04T06:39:08.213Z,0.98
2019-03-04T06:42:14.809Z,1.02
2019-03-04T06:45:21.289Z,1.05
2019-03-04T06:48:27.716Z,1.04
2019-03-04T06:51:43.050Z,1.03
2019-03-04T06:55:31.912Z,1.08
2019-03-04T06:58:41.435Z,1.09
2019-03-04T07:01:51.414Z,1.28
2019-03-04T07:05:12.216Z,1.28
2019-03-04T07:08:56.840Z,1.27
2019-03-04T07:12:03.381Z,1.24
2019-03-04T07:15:10.445Z,1.34
2019-03-04T07:18:16.932Z,1.26
2019-03-04T07:21:23.366Z,1.32
2019-03-04T07:24:30.200Z,1.25
2019-03-04T07:27:36.427Z,1.38
2019-03-04T07:30:42.801Z,1.35
2019-03-04T07:33:49.241Z,1.41
2019-03-04T07:36:55.674Z,1.41
2019-03-04T07:40:02.092Z,1.31
2019-03-04T07:43:08.832Z,1.37
2019-03-04T07:46:15.171Z,1.39
2019-03-04T07:49:21.669Z,1.33
2019-03-04T07:52:28.000Z,1.47
2019-03-04T07:55:34.680Z,1.47
2019-03-04T07:58:41.304Z,1.47
2019-03-04T08:01:47.736Z,1.47
2019-03-04T08:04:54.189Z,1.53
2019-03-04T08:08:00.493Z,1.53
2019-03-04T08:11:59.896Z,1.52
2019-03-04T08:15:08.230Z,1.57
2019-03-04T08:18:15.599Z,1.56
2019-03-04T08:21:21.941Z,1.56
2019-03-04T08:24:28.315Z,1.60
2019-03-04T08:27:34.886Z,1.78
2019-03-04T08:30:41.221Z,1.69
2019-03-04T08:33:48.445Z,1.62
2019-03-04T08:36:55.299Z,1.69
2019-03-04T08:40:02.733Z,1.65
2019-03-04T08:43:10.454Z,1.58
2019-03-04T08:46:17.087Z,1.57
2019-03-04T08:49:23.726Z,1.50
2019-03-04T08:52:30.104Z,1.52
2019-03-04T08:55:36.367Z,1.55
2019-03-04T08:58:42.691Z,1.55
2019-03-04T09:01:49.444Z,1.62
2019-03-04T09:04:56.017Z,1.66
2019-03-04T09:08:02.701Z,1.71
2019-03-04T09:11:09.480Z,1.80
2019-03-04T09:14:16.136Z,1.83
2019-03-04T09:17:22.712Z,1.84
2019-03-04T09:20:29.618Z,1.93
2019-03-04T09:23:36.064Z,2.02
2019-03-04T09:26:43.580Z,1.98
2019-03-04T09:29:50.020Z,1.98
2019-03-04T09:32:56.339Z,1.82
2019-03-04T09:36:02.582Z,1.86
2019-03-04T09:39:11.686Z,1.88
2019-03-04T09:42:20.862Z,1.91
2019-03-04T09:45:27.267Z,1.99
2019-03-04T09:48:33.731Z,2.02
2019-03-04T09:51:40.196Z,2.01
2019-03-04T09:54:46.599Z,2.05
2019-03-04T09:57:52.912Z,2.03
2019-03-04T10:01:36.125Z,2.09
2019-03-04T10:05:02.242Z,2.13
2019-03-04T10:08:40.180Z,2.10
2019-03-04T10:11:56.770Z,2.13
2019-03-04T10:15:41.831Z,2.10
2019-03-04T10:19:24.251Z,2.20
2019-03-04T10:22:51.927Z,2.13
2019-03-04T10:26:23.189Z,2.03
2019-03-04T10:30:12.470Z,2.05
2019-03-04T10:34:11.929Z,2.19
2019-03-04T10:38:00.897Z,2.21
2019-03-04T10:41:39.760Z,2.30
2019-03-04T10:45:18.374Z,2.26
2019-03-04T10:48:24.859Z,2.16
2019-03-04T10:51:31.259Z,2.23
2019-03-04T10:54:37.524Z,2.30
2019-03-04T10:57:44.082Z,2.35
2019-03-04T11:00:50.564Z,2.32
2019-03-04T11:03:56.942Z,2.41
2019-03-04T11:07:03.442Z,2.30
2019-03-04T11:10:10.101Z,2.30
2019-03-04T11:13:17.223Z,2.28
2019-03-04T11:16:24.791Z,2.31
2019-03-04T11:19:31.110Z,2.33
2019-03-04T11:22:38.196Z,2.29
2019-03-04T11:25:44.566Z,2.27
2019-03-04T11:28:51.094Z,2.25
2019-03-04T11:31:58.065Z,2.27
2019-03-04T11:35:05.210Z,2.41
2019-03-04T11:38:41.132Z,2.48
2019-03-04T11:41:47.472Z,2.30
2019-03-04T11:44:54.208Z,2.22
2019-03-04T11:48:00.606Z,2.34
2019-03-04T11:51:06.974Z,2.52
2019-03-04T11:54:13.507Z,2.40
2019-03-04T11:57:20.180Z,2.44
2019-03-04T12:00:39.024Z,2.58
2019-03-04T12:03:45.444Z,2.41
2019-03-04T12:06:51.801Z,2.29
2019-03-04T12:09:58.122Z,2.24
2019-03-04T12:13:05.196Z,2.39
2019-03-04T12:16:11.548Z,2.05
2019-03-04T12:19:17.919Z,2.01
2019-03-04T12:22:24.408Z,2.01
2019-03-04T12:25:31.754Z,1.98
2019-03-04T12:28:39.372Z,2.16
2019-03-04T12:31:57.022Z,2.14
2019-03-04T12:35:03.766Z,2.09
2019-03-04T12:38:10.647Z,2.19
2019-03-04T12:41:17.463Z,2.27
2019-03-04T12:44:23.805Z,2.19
2019-03-04T12:47:33.640Z,2.28
2019-03-04T12:50:40.660Z,2.04
2019-03-04T12:53:46.930Z,2.00
2019-03-04T12:56:53.419Z,2.02
2019-03-04T12:59:59.815Z,2.14
2019-03-04T13:03:06.459Z,2.20
2019-03-04T13:06:12.858Z,2.17
2019-03-04T13:09:19.238Z,2.31
2019-03-04T13:12:25.639Z,2.07
2019-03-04T13:15:32.054Z,2.10
2019-03-04T13:18:38.638Z,2.09
2019-03-04T13:21:44.998Z,2.04
2019-03-04T13:24:51.419Z,2.08
2019-03-04T13:28:07.845Z,1.98
2019-03-04T13:31:06.627Z,2.03
2019-03-04T13:34:12.987Z,2.11
2019-03-04T13:37:19.389Z,2.20
2019-03-04T13:40:26.127Z,2.28
2019-03-04T13:43:32.599Z,2.26
2019-03-04T13:46:39.627Z,2.21
2019-03-04T13:49:46.765Z,2.11
2019-03-04T13:52:53.118Z,2.13
2019-03-04T13:55:59.525Z,2.21
2019-03-04T13:59:05.792Z,2.29
2019-03-04T14:02:12.138Z,2.22
2019-03-04T14:05:19.693Z,2.22
2019-03-04T14:08:27.081Z,2.13
2019-03-04T14:11:33.510Z,2.13
2019-03-04T14:14:40.975Z,2.09
2019-03-04T14:17:47.340Z,2.19
2019-03-04T14:20:53.753Z,2.12
2019-03-04T14:24:00.411Z,2.09
2019-03-04T14:27:06.744Z,2.15
2019-03-04T14:30:15.365Z,2.26
2019-03-04T14:33:21.871Z,2.34
2019-03-04T14:36:28.300Z,2.17
2019-03-04T14:39:35.020Z,2.35
2019-03-04T14:42:41.669Z,2.25
2019-03-04T14:45:48.345Z,2.32
2019-03-04T14:48:55.168Z,2.24
2019-03-04T14:52:01.522Z,2.21
2019-03-04T14:55:10.240Z,2.29
2019-03-04T14:58:16.740Z,2.25
2019-03-04T15:01:23.516Z,2.19
2019-03-04T15:04:29.847Z,2.26
2019-03-04T15:07:36.232Z,2.20
2019-03-04T15:10:42.707Z,2.34
2019-03-04T15:13:49.141Z,2.18
2019-03-04T15:17:02.978Z,2.17
2019-03-04T15:20:09.303Z,2.17
2019-03-04T15:23:12.067Z,2.23
2019-03-04T15:26:18.503Z,2.18
2019-03-04T15:29:24.927Z,2.20
2019-03-04T15:32:31.622Z,2.25
2019-03-04T15:35:38.355Z,2.26
2019-03-04T15:38:44.632Z,2.25
2019-03-04T15:41:51.229Z,2.17
2019-03-04T15:44:58.075Z,2.37
2019-03-04T15:48:04.899Z,2.33
2019-03-04T15:51:11.370Z,2.32
2019-03-04T15:54:17.687Z,2.32
2019-03-04T15:57:24.084Z,2.41
2019-03-04T16:00:32.165Z,2.33
2019-03-04T16:03:38.662Z,2.32
2019-03-04T16:06:44.911Z,2.28
2019-03-04T16:09:51.706Z,2.19
2019-03-04T16:13:16.096Z,2.25
2019-03-04T16:16:22.406Z,2.26
2019-03-04T16:19:28.733Z,2.23
2019-03-04T16:22:35.054Z,2.27
2019-03-04T16:25:41.477Z,2.25
2019-03-04T16:28:51.453Z,2.36
2019-03-04T16:31:57.778Z,2.35
2019-03-04T16:35:05.924Z,2.19
2019-03-04T16:38:12.556Z,2.26
2019-03-04T16:41:18.948Z,2.37
2019-03-04T16:44:25.311Z,2.26
2019-03-04T16:47:31.864Z,2.32
2019-03-04T16:50:38.644Z,2.32
2019-03-04T16:53:45.072Z,2.29
2019-03-04T16:56:51.448Z,2.41
2019-03-04T16:59:57.710Z,2.41
2019-03-04T17:03:04.295Z,2.29
2019-03-04T17:06:10.722Z,2.33
2019-03-04T17:09:19.011Z,2.42
2019-03-04T17:12:25.451Z,2.32
2019-03-04T17:15:31.809Z,2.45
2019-03-04T17:18:38.361Z,2.36
2019-03-04T17:21:44.735Z,2.46
2019-03-04T17:24:51.731Z,2.39
2019-03-04T17:27:58.085Z,2.39
2019-03-04T17:31:04.432Z,2.27
2019-03-04T17:34:11.005Z,2.33
2019-03-04T17:37:17.929Z,2.41
2019-03-04T17:40:24.389Z,2.47
2019-03-04T17:43:31.701Z,2.39
2019-03-04T17:46:38.073Z,2.39
2019-03-04T17:49:44.641Z,2.45
2019-03-04T17:52:51.036Z,2.44
2019-03-04T17:55:58.314Z,2.52
2019-03-04T17:59:04.811Z,2.57
2019-03-04T18:02:11.694Z,2.41
2019-03-04T18:05:18.576Z,2.57
2019-03-04T18:08:25.253Z,2.58
2019-03-04T18:11:32.062Z,2.57
2019-03-04T18:14:39.455Z,2.72
2019-03-04T18:17:45.868Z,2.72
2019-03-04T18:20:52.544Z,2.63
2019-03-04T18:23:58.958Z,2.59
2019-03-04T18:27:09.033Z,2.63
2019-03-04T18:30:59.618Z,2.56
2019-03-04T18:34:42.969Z,2.46
2019-03-04T18:38:20.773Z,2.57
2019-03-04T18:41:59.756Z,2.52
2019-03-04T18:45:53.022Z,2.49
2019-03-04T18:49:02.954Z,2.52
2019-03-04T18:52:09.483Z,2.63
2019-03-04T18:55:15.817Z,2.65
2019-03-04T18:58:22.185Z,2.71
2019-03-04T19:01:28.846Z,2.62
2019-03-04T19:04:35.520Z,2.53
2019-03-04T19:07:42.116Z,2.51
2019-03-04T19:10:48.430Z,2.56
2019-03-04T19:13:56.978Z,2.58
2019-03-04T19:17:03.473Z,2.44
2019-03-04T19:20:12.369Z,2.62
2019-03-04T19:23:20.225Z,2.53
2019-03-04T19:26:26.749Z,2.45
2019-03-04T19:29:33.376Z,2.47
2019-03-04T19:32:39.719Z,2.47
2019-03-04T19:35:46.165Z,2.52
2019-03-04T19:38:53.027Z,2.52
2019-03-04T19:41:59.388Z,2.58
2019-03-04T19:45:07.463Z,2.53
2019-03-04T19:48:15.247Z,2.72
2019-03-04T19:51:23.623Z,2.58
2019-03-04T19:54:30.118Z,2.52
2019-03-04T19:57:36.570Z,2.45
2019-03-04T20:00:46.635Z,2.57
2019-03-04T20:03:53.444Z,2.59
2019-03-04T20:06:59.940Z,2.58
2019-03-04T20:10:07.147Z,2.46
2019-03-04T20:13:13.512Z,2.44
2019-03-04T20:16:19.901Z,2.40
2019-03-04T20:19:26.269Z,2.48
2019-03-04T20:22:32.717Z,2.43
2019-03-04T20:25:39.087Z,2.39
2019-03-04T20:28:45.485Z,2.48
2019-03-04T20:31:52.046Z,2.45
2019-03-04T20:34:58.570Z,2.48
2019-03-04T20:38:04.984Z,2.51
2019-03-04T20:41:11.782Z,2.43
2019-03-04T20:44:18.576Z,2.41
2019-03-04T20:47:25.322Z,2.45
2019-03-04T20:50:31.651Z,2.14
2019-03-04T20:53:38.138Z,2.18
2019-03-04T20:56:46.626Z,2.15
2019-03-04T20:59:53.321Z,2.28
2019-03-04T21:02:59.704Z,2.31
2019-03-04T21:06:06.257Z,2.49
2019-03-04T21:09:15.491Z,2.51
2019-03-04T21:12:22.066Z,2.47
2019-03-04T21:15:30.042Z,2.38
2019-03-04T21:18:36.688Z,2.26
2019-03-04T21:21:43.117Z,2.24
2019-03-04T21:24:49.472Z,2.30
2019-03-04T21:27:56.719Z,2.20
2019-03-04T21:31:35.994Z,2.26
2019-03-04T21:35:05.865Z,2.30
2019-03-04T21:38:12.366Z,2.30
2019-03-04T21:41:38.872Z,2.22
2019-03-04T21:45:10.543Z,2.22
2019-03-04T21:48:21.400Z,1.84
2019-03-04T21:51:43.022Z,2.04
2019-03-04T21:54:50.542Z,2.04
2019-03-04T21:57:57.941Z,2.03
2019-03-04T22:01:16.979Z,1.85
2019-03-04T22:04:23.470Z,1.98
2019-03-04T22:07:29.891Z,2.05
2019-03-04T22:10:36.317Z,2.12
2019-03-04T22:13:42.713Z,1.84
2019-03-04T22:16:49.066Z,1.90
2019-03-04T22:19:55.516Z,1.82
2019-03-04T22:23:02.148Z,1.76
2019-03-04T22:26:08.487Z,1.75
2019-03-04T22:29:14.990Z,1.74
2019-03-04T22:32:21.469Z,1.80
2019-03-04T22:35:27.938Z,1.88
2019-03-04T22:38:34.235Z,1.82
2019-03-04T22:41:41.064Z,1.86
2019-03-04T22:44:48.498Z,1.71
2019-03-04T22:47:54.825Z,1.80
2019-03-04T22:51:01.252Z,1.53
2019-03-04T22:54:07.717Z,1.64
2019-03-04T22:57:14.424Z,1.74
2019-03-04T23:01:26.810Z,1.74
2019-03-04T23:05:01.042Z,1.75
2019-03-04T23:08:09.523Z,1.48
2019-03-04T23:11:15.975Z,1.51
2019-03-04T23:14:26.382Z,1.48
2019-03-04T23:17:32.791Z,1.46
2019-03-04T23:20:39.246Z,1.58
2019-03-04T23:23:45.507Z,1.49
2019-03-04T23:26:51.878Z,1.49
2019-03-04T23:29:58.562Z,1.52
2019-03-04T23:33:05.036Z,1.39
2019-03-04T23:36:11.385Z,1.40
2019-03-04T23:39:17.881Z,1.56
2019-03-04T23:42:24.331Z,1.26
2019-03-04T23:45:30.659Z,1.16
2019-03-04T23:48:36.989Z,1.28
2019-03-04T23:51:43.875Z,1.31
2019-03-04T23:54:50.387Z,1.41
2019-03-04T23:57:56.871Z,1.20
